Dale, New York
Current Conditions -  °F | °C
As of 5:54 PM on Friday 19 Dec 2014 (Local Time) from KDSV Reporting Station
Overcast Overcast  
Wind Chill: 21°   Ceiling: 2900
Heat Index: 28°   Visibility: 10mi
Dew Point: 19°   Wind: 7mph
Humidity: 69%   Direction: 300°WNW
Pressure: 30.22"   Gusts: NA
Location:  42.82°N, 78.17°W
Report Text: KDSV 192254Z AUTO 30006KT 10SM OVC029 M02/M07 A3022 RMK AO2 SLP250 T10221072 $
Loading
Personal Weather Stations






























Interactive Weather Map New forecast layout! Learn more

10-Day Weather Forecast

Advertisements
Track Severe Weather on mobile